Mount Holly, Vermont
Current Conditions -  °F | °C
As of 11:26 AM on Wednesday 28 Jan 2015 (Local Time) from KVSF Reporting Station
Haze Haze  
Wind Chill:   Ceiling: 9500
Heat Index: 15°   Visibility: 0.5mi
Dew Point:   Wind: 8mph
Humidity: 61%   Direction: 280°W
Pressure: 30.02"   Gusts: NA
Location:  43.45°N, 72.83°W
Report Text: KVSF 281626Z AUTO 28007KT 1/2SM HZ FEW001 BKN095 M09/M16 A3002 RMK AO2 T10941156 TSNO
Loading
Personal Weather Stations






























Interactive Weather Map New forecast layout! Learn more

10-Day Weather Forecast

Advertisements
Track Severe Weather on mobile